Hlavní strana
METAR-TAF:

METAR-TAF

Letiště :

Port Moresby, Papua-Nová Guinea

zeměpisná šířka: 09-26S, zeměpisná délka: 147-13E, výška: 38 m

Aktuální stav počasí

Zpráva byla vytvořena před 55 minutami, v 03:00 UTC
Jižní vítr 14 kt
Teplota 31°C
Vlhkost vzduchu 63%
Tlak 1009 hPa
Viditelnost 10 km a více
Skoro jasno ve výšce 3000 ft
Polojasno ve výšce 4000 ft
zákal

METAR: AYPY 230300Z 19014KT 9999 HZ FEW030 SCT040 31/23 Q1009 RMK/ DIST BUILD UPS FM N TO E

Čas: 13:55 (03:55 UTC)

Předpověď počasí

Zpráva byla vytvořena před 6 hodinami a 10 minutami, v 21:45 UTC
Předpověď platná od 23 v 00 UTC do 23 v 24 UTC
Jihojihovýchodní vítr 6 kt
Viditelnost 10 km a více
Polojasno ve výšce 1800 ft
Polojasno ve výšce 14000 ft
Od 23 v 0400 UTC
Jihovýchodní vítr 8 kt
Viditelnost 10 km a více
Polojasno ve výšce 1800 ft
Oblačno až skoro zataženo ve výšce 14000 ft

TAF: AYPY 222145Z 2300/2324 16006KT 9999 SCT018 SCT140 FM230400 14008KT 9999 SCT018 BKN140

Stav a předpovědi počasí z více než 4 000 letišť (zprávy METAR a TAF).

Červené a žluté tečky na mapě představují dostupné meteorologické stanice.

Když kurzor umístíte na tečku, zobrazí se název stanice.

Pak kliknutím zobrazíte stav a předpověď počasí.

Chcete-li změnit mapu, kliknutím na zelené tlačítko se znaménkem +mapu přiblížíte, kliknutím na zelené tlačítko se znaménkem – mapu oddálíte a kliknutím na zelené šipky přejdete na sousední mapy.


METAR-TAF: